sensor_id;sensor_type;location;lat;lon;timestamp;temperature;humidity
45315;SHT31;31051;51.540;5.852;2023-07-31T00:01:50;16.3;89.6
45315;SHT31;31051;51.540;5.852;2023-07-31T00:14:49;16.3;89.3
45315;SHT31;31051;51.540;5.852;2023-07-31T00:27:38;16.3;89.1
45315;SHT31;31051;51.540;5.852;2023-07-31T00:40:37;16.3;89.3
45315;SHT31;31051;51.540;5.852;2023-07-31T00:53:37;16.2;89.3
45315;SHT31;31051;51.540;5.852;2023-07-31T01:06:36;16.3;88.7
45315;SHT31;31051;51.540;5.852;2023-07-31T01:19:36;16.3;88.3
45315;SHT31;31051;51.540;5.852;2023-07-31T01:32:35;16.2;87.6
45315;SHT31;31051;51.540;5.852;2023-07-31T01:45:34;16.3;86.8
45315;SHT31;31051;51.540;5.852;2023-07-31T01:58:34;16.2;86.1
45315;SHT31;31051;51.540;5.852;2023-07-31T02:11:32;16.2;84.9
45315;SHT31;31051;51.540;5.852;2023-07-31T02:24:21;16.1;85.0
45315;SHT31;31051;51.540;5.852;2023-07-31T02:37:21;16.1;84.8
45315;SHT31;31051;51.540;5.852;2023-07-31T02:50:20;16.2;84.3
45315;SHT31;31051;51.540;5.852;2023-07-31T03:03:19;16.1;84.5
45315;SHT31;31051;51.540;5.852;2023-07-31T03:16:19;16.1;84.9
45315;SHT31;31051;51.540;5.852;2023-07-31T03:29:17;16.2;84.5
45315;SHT31;31051;51.540;5.852;2023-07-31T03:42:06;16.3;84.2
45315;SHT31;31051;51.540;5.852;2023-07-31T03:55:06;16.4;84.4
45315;SHT31;31051;51.540;5.852;2023-07-31T04:08:05;16.4;84.5
45315;SHT31;31051;51.540;5.852;2023-07-31T04:21:05;16.4;85.4
45315;SHT31;31051;51.540;5.852;2023-07-31T04:34:04;16.5;85.7
45315;SHT31;31051;51.540;5.852;2023-07-31T04:47:03;16.6;85.8
45315;SHT31;31051;51.540;5.852;2023-07-31T05:00:02;16.7;85.6
45315;SHT31;31051;51.540;5.852;2023-07-31T05:25:39;16.8;85.5
45315;SHT31;31051;51.540;5.852;2023-07-31T05:38:39;16.6;87.8
45315;SHT31;31051;51.540;5.852;2023-07-31T05:51:38;16.4;88.5
45315;SHT31;31051;51.540;5.852;2023-07-31T06:04:37;16.3;89.8
45315;SHT31;31051;51.540;5.852;2023-07-31T06:17:37;16.2;91.5
45315;SHT31;31051;51.540;5.852;2023-07-31T06:30:36;16.2;92.0
45315;SHT31;31051;51.540;5.852;2023-07-31T06:43:35;16.2;91.8
45315;SHT31;31051;51.540;5.852;2023-07-31T06:56:35;16.3;91.6
45315;SHT31;31051;51.540;5.852;2023-07-31T07:09:34;16.4;91.5
45315;SHT31;31051;51.540;5.852;2023-07-31T07:22:34;16.4;91.3
45315;SHT31;31051;51.540;5.852;2023-07-31T07:35:33;16.4;91.4
45315;SHT31;31051;51.540;5.852;2023-07-31T07:48:32;16.4;91.5
45315;SHT31;31051;51.540;5.852;2023-07-31T08:01:32;16.3;91.5
45315;SHT31;31051;51.540;5.852;2023-07-31T08:14:31;16.3;91.8
45315;SHT31;31051;51.540;5.852;2023-07-31T08:27:31;16.2;91.3
45315;SHT31;31051;51.540;5.852;2023-07-31T08:40:30;16.4;91.8
45315;SHT31;31051;51.540;5.852;2023-07-31T08:53:29;16.4;91.7
45315;SHT31;31051;51.540;5.852;2023-07-31T09:06:28;16.4;91.4
45315;SHT31;31051;51.540;5.852;2023-07-31T09:19:17;16.4;91.1
45315;SHT31;31051;51.540;5.852;2023-07-31T09:45:16;16.9;89.9
45315;SHT31;31051;51.540;5.852;2023-07-31T09:58:15;17.1;88.3
45315;SHT31;31051;51.540;5.852;2023-07-31T10:11:14;17.1;87.9
45315;SHT31;31051;51.540;5.852;2023-07-31T10:24:14;17.2;88.1
45315;SHT31;31051;51.540;5.852;2023-07-31T10:37:13;17.4;88.2
45315;SHT31;31051;51.540;5.852;2023-07-31T10:50:13;17.6;86.5
45315;SHT31;31051;51.540;5.852;2023-07-31T11:03:12;17.6;86.1
45315;SHT31;31051;51.540;5.852;2023-07-31T11:16:11;18.0;85.0
45315;SHT31;31051;51.540;5.852;2023-07-31T11:29:10;18.5;83.8
45315;SHT31;31051;51.540;5.852;2023-07-31T11:41:59;18.6;83.7
45315;SHT31;31051;51.540;5.852;2023-07-31T11:54:58;18.8;83.6
45315;SHT31;31051;51.540;5.852;2023-07-31T12:07:57;18.7;82.5
45315;SHT31;31051;51.540;5.852;2023-07-31T12:20:46;18.6;84.9
45315;SHT31;31051;51.540;5.852;2023-07-31T12:33:46;18.2;85.6
45315;SHT31;31051;51.540;5.852;2023-07-31T12:46:44;18.2;87.3
45315;SHT31;31051;51.540;5.852;2023-07-31T12:59:32;18.3;85.5
45315;SHT31;31051;51.540;5.852;2023-07-31T13:12:21;18.4;84.7
45315;SHT31;31051;51.540;5.852;2023-07-31T13:25:10;18.6;84.1
45315;SHT31;31051;51.540;5.852;2023-07-31T13:38:09;18.9;82.8
45315;SHT31;31051;51.540;5.852;2023-07-31T13:51:08;19.0;83.4
45315;SHT31;31051;51.540;5.852;2023-07-31T14:03:57;19.0;81.9
45315;SHT31;31051;51.540;5.852;2023-07-31T14:16:57;18.4;85.6
45315;SHT31;31051;51.540;5.852;2023-07-31T14:29:56;17.9;89.5
45315;SHT31;31051;51.540;5.852;2023-07-31T14:42:55;17.8;90.8
45315;SHT31;31051;51.540;5.852;2023-07-31T14:55:55;18.0;89.0
45315;SHT31;31051;51.540;5.852;2023-07-31T15:08:53;18.0;88.3
45315;SHT31;31051;51.540;5.852;2023-07-31T15:21:42;17.8;89.3
45315;SHT31;31051;51.540;5.852;2023-07-31T15:34:42;17.7;90.0
45315;SHT31;31051;51.540;5.852;2023-07-31T15:47:41;17.7;90.6
45315;SHT31;31051;51.540;5.852;2023-07-31T16:00:41;17.7;90.2
45315;SHT31;31051;51.540;5.852;2023-07-31T16:13:39;17.6;90.0
45315;SHT31;31051;51.540;5.852;2023-07-31T16:26:28;17.5;90.5
45315;SHT31;31051;51.540;5.852;2023-07-31T16:39:27;17.3;91.3
45315;SHT31;31051;51.540;5.852;2023-07-31T16:52:16;17.2;91.7
45315;SHT31;31051;51.540;5.852;2023-07-31T17:05:14;17.2;91.8
45315;SHT31;31051;51.540;5.852;2023-07-31T17:18:03;17.2;91.6
45315;SHT31;31051;51.540;5.852;2023-07-31T17:30:52;17.2;91.5
45315;SHT31;31051;51.540;5.852;2023-07-31T17:43:51;17.2;91.8
45315;SHT31;31051;51.540;5.852;2023-07-31T17:56:51;17.3;91.9
45315;SHT31;31051;51.540;5.852;2023-07-31T18:09:49;17.2;91.9
45315;SHT31;31051;51.540;5.852;2023-07-31T18:22:38;17.3;91.6
45315;SHT31;31051;51.540;5.852;2023-07-31T18:35:38;17.2;92.0
45315;SHT31;31051;51.540;5.852;2023-07-31T18:48:37;17.2;92.3
45315;SHT31;31051;51.540;5.852;2023-07-31T19:01:36;17.3;92.3
45315;SHT31;31051;51.540;5.852;2023-07-31T19:14:25;17.4;92.1
45315;SHT31;31051;51.540;5.852;2023-07-31T19:27:24;17.1;90.5
45315;SHT31;31051;51.540;5.852;2023-07-31T19:40:24;16.9;90.6
45315;SHT31;31051;51.540;5.852;2023-07-31T19:53:23;16.8;91.7
45315;SHT31;31051;51.540;5.852;2023-07-31T20:06:22;16.8;92.0
45315;SHT31;31051;51.540;5.852;2023-07-31T20:19:22;16.9;92.3
45315;SHT31;31051;51.540;5.852;2023-07-31T20:32:21;17.0;92.5
45315;SHT31;31051;51.540;5.852;2023-07-31T20:45:21;16.9;91.2
45315;SHT31;31051;51.540;5.852;2023-07-31T21:11:07;16.5;91.5
45315;SHT31;31051;51.540;5.852;2023-07-31T21:23:57;16.4;91.8
45315;SHT31;31051;51.540;5.852;2023-07-31T21:36:56;16.4;92.2
45315;SHT31;31051;51.540;5.852;2023-07-31T21:49:55;16.4;92.4
45315;SHT31;31051;51.540;5.852;2023-07-31T22:02:54;16.5;92.4
45315;SHT31;31051;51.540;5.852;2023-07-31T22:15:43;16.4;92.7
45315;SHT31;31051;51.540;5.852;2023-07-31T22:28:42;16.4;92.7
45315;SHT31;31051;51.540;5.852;2023-07-31T22:41:42;16.4;92.9
45315;SHT31;31051;51.540;5.852;2023-07-31T22:54:41;16.5;92.5
45315;SHT31;31051;51.540;5.852;2023-07-31T23:07:40;16.6;92.1
45315;SHT31;31051;51.540;5.852;2023-07-31T23:20:40;16.6;91.7
45315;SHT31;31051;51.540;5.852;2023-07-31T23:33:39;16.6;91.6
45315;SHT31;31051;51.540;5.852;2023-07-31T23:46:39;16.5;91.4
45315;SHT31;31051;51.540;5.852;2023-07-31T23:59:37;16.6;91.5
